Time;durP1;ratioP1;P1;durP2;ratioP2;P2;SDS_P1;SDS_P2;PMS_P1;PMS_P2;Temp;Humidity;BMP_temperature;BMP_pressure;BME280_temperature;BME280_humidity;BME280_pressure;Samples;Min_cycle;Max_cycle;Signal;HPM_P1;HPM_P2
2023/07/31 00:00:15;;;;;;;9.23;3.60;;;17.10;99.90;;;;;;5093306;28;20044;-73
2023/07/31 00:02:41;;;;;;;11.77;3.57;;;17.00;99.90;;;;;;5093512;28;20079;-73
2023/07/31 00:05:08;;;;;;;7.80;2.60;;;17.00;99.90;;;;;;5093808;28;20422;-76
2023/07/31 00:07:34;;;;;;;7.37;2.53;;;17.00;99.90;;;;;;5094673;28;20387;-73
2023/07/31 00:10:00;;;;;;;6.50;2.43;;;17.00;99.90;;;;;;5094316;28;20146;-73
2023/07/31 00:12:26;;;;;;;7.80;2.20;;;17.00;99.90;;;;;;5076316;28;20048;-72
2023/07/31 00:14:51;;;;;;;8.13;2.80;;;17.10;99.90;;;;;;5094284;28;20044;-72
2023/07/31 00:17:17;;;;;;;6.20;2.10;;;17.00;99.90;;;;;;5092810;28;20040;-73
2023/07/31 00:19:43;;;;;;;5.93;2.30;;;17.00;99.90;;;;;;5093183;28;20043;-72
2023/07/31 00:22:09;;;;;;;6.97;1.90;;;17.00;99.90;;;;;;5092634;28;20123;-78
2023/07/31 00:24:34;;;;;;;4.23;1.90;;;17.00;99.90;;;;;;5092765;28;20047;-72
2023/07/31 00:27:00;;;;;;;7.23;2.00;;;17.00;99.90;;;;;;5094024;28;20044;-73
2023/07/31 00:29:26;;;;;;;6.37;1.90;;;17.00;99.90;;;;;;5075753;28;20054;-73
2023/07/31 00:31:51;;;;;;;7.20;2.30;;;16.90;99.90;;;;;;5093890;28;20071;-73
2023/07/31 00:34:17;;;;;;;8.83;2.27;;;16.90;99.90;;;;;;5092329;28;20048;-73
2023/07/31 00:36:43;;;;;;;5.73;2.03;;;16.90;99.90;;;;;;5076000;28;20044;-73
2023/07/31 00:39:08;;;;;;;4.83;2.00;;;16.90;99.90;;;;;;5092526;28;20055;-73
2023/07/31 00:41:34;;;;;;;4.93;1.87;;;16.90;99.90;;;;;;5092224;28;20052;-73
2023/07/31 00:44:00;;;;;;;5.57;2.27;;;16.90;99.90;;;;;;5093669;28;20123;-73
2023/07/31 00:46:25;;;;;;;7.53;2.30;;;16.90;99.90;;;;;;5093363;28;20396;-73
2023/07/31 00:48:51;;;;;;;4.40;2.43;;;16.90;99.90;;;;;;5093723;28;20044;-73
2023/07/31 00:51:17;;;;;;;4.80;2.30;;;16.90;99.90;;;;;;5092351;28;20100;-73
2023/07/31 00:53:43;;;;;;;4.87;2.10;;;16.90;99.90;;;;;;5093438;28;20048;-73
2023/07/31 00:56:10;;;;;;;4.50;2.00;;;16.90;99.90;;;;;;5093537;28;20446;-73
2023/07/31 00:58:36;;;;;;;5.10;2.00;;;16.90;99.90;;;;;;5093162;28;20044;-73
2023/07/31 01:01:02;;;;;;;6.13;2.00;;;16.90;99.90;;;;;;5092128;28;20109;-73
2023/07/31 01:03:28;;;;;;;5.33;2.20;;;16.90;99.90;;;;;;5093080;28;20051;-73
2023/07/31 01:06:17;;;;;;;4.03;1.83;;;16.90;99.90;;;;;;5091656;28;20056;-72
2023/07/31 01:09:03;;;;;;;5.03;1.70;;;16.90;99.90;;;;;;5093695;28;20048;-73
2023/07/31 01:11:37;;;;;;;5.40;1.87;;;16.90;99.90;;;;;;5091280;28;20105;-72
2023/07/31 01:14:03;;;;;;;5.22;2.10;;;16.90;99.90;;;;;;5092441;28;20052;-72
2023/07/31 01:16:29;;;;;;;6.60;2.10;;;16.90;99.90;;;;;;5092922;28;20119;-72
2023/07/31 01:18:55;;;;;;;5.73;2.30;;;16.90;99.90;;;;;;5093213;28;20551;-72
2023/07/31 01:21:32;;;;;;;4.13;1.80;;;16.90;99.90;;;;;;5092586;28;20121;-72
2023/07/31 01:24:17;;;;;;;3.77;1.60;;;16.90;99.90;;;;;;5091992;28;20060;-72
2023/07/31 01:26:46;;;;;;;;;;;16.90;99.90;;;;;;5093816;28;20486;-72
2023/07/31 01:29:15;;;;;;;4.73;1.87;;;16.90;99.90;;;;;;5092020;28;19941;-72
2023/07/31 01:31:44;;;;;;;7.20;2.13;;;16.80;99.90;;;;;;5092844;28;20134;-72
2023/07/31 01:34:11;;;;;;;4.70;1.97;;;16.80;99.90;;;;;;5092937;28;20052;-72
2023/07/31 01:36:37;;;;;;;3.50;1.60;;;16.80;99.90;;;;;;5092752;28;20048;-72
2023/07/31 01:39:03;;;;;;;6.23;1.70;;;16.80;99.90;;;;;;5092897;28;20145;-72
2023/07/31 01:41:29;;;;;;;3.00;1.60;;;16.80;99.90;;;;;;5092738;28;20055;-72
2023/07/31 01:43:55;;;;;;;4.20;1.63;;;16.80;99.90;;;;;;5074925;28;20052;-72
2023/07/31 01:46:21;;;;;;;6.20;1.60;;;16.80;99.90;;;;;;5092515;28;20095;-72
2023/07/31 01:48:46;;;;;;;5.03;2.07;;;16.80;99.90;;;;;;5091711;28;20087;-72
2023/07/31 01:51:12;;;;;;;3.23;1.77;;;16.80;99.90;;;;;;5091880;28;20134;-72
2023/07/31 01:53:38;;;;;;;8.87;2.07;;;16.80;99.90;;;;;;5092612;28;20194;-72
2023/07/31 01:56:03;;;;;;;7.10;1.97;;;16.80;99.90;;;;;;5093264;28;20492;-72
2023/07/31 01:58:29;;;;;;;5.23;1.90;;;16.80;99.90;;;;;;5092479;28;20063;-72
2023/07/31 02:00:55;;;;;;;5.67;2.10;;;16.80;99.90;;;;;;5092788;28;20131;-72
2023/07/31 02:03:22;;;;;;;9.07;2.30;;;16.80;99.90;;;;;;5074683;28;20040;-72
2023/07/31 02:05:49;;;;;;;6.97;2.30;;;16.80;99.90;;;;;;5092363;28;20056;-72
2023/07/31 02:08:15;;;;;;;7.30;2.07;;;16.80;99.90;;;;;;5092710;28;20496;-72
2023/07/31 02:10:41;;;;;;;6.90;2.63;;;16.80;99.90;;;;;;5092403;28;20047;-72
2023/07/31 02:13:07;;;;;;;6.67;2.53;;;16.80;99.90;;;;;;5091552;28;20048;-72
2023/07/31 02:15:33;;;;;;;8.83;2.40;;;16.80;99.90;;;;;;5092385;28;20126;-72
2023/07/31 02:17:58;;;;;;;5.97;2.37;;;16.80;99.90;;;;;;5095873;28;20054;-73
2023/07/31 02:20:24;;;;;;;8.50;2.50;;;16.80;99.90;;;;;;5095158;28;20428;-73
2023/07/31 02:22:50;;;;;;;6.77;2.20;;;16.80;99.90;;;;;;5096356;28;20102;-72
2023/07/31 02:25:16;;;;;;;6.77;2.10;;;16.80;99.90;;;;;;5094897;28;20052;-72
2023/07/31 02:27:41;;;;;;;5.17;1.70;;;16.80;99.90;;;;;;5096092;28;20040;-72
2023/07/31 02:30:08;;;;;;;7.27;2.13;;;16.80;99.90;;;;;;5096327;28;20494;-72
2023/07/31 02:32:33;;;;;;;6.63;2.20;;;16.80;99.90;;;;;;5096182;28;20090;-72
2023/07/31 02:34:59;;;;;;;5.20;2.07;;;16.80;99.90;;;;;;5078295;28;20048;-72
2023/07/31 02:37:26;;;;;;;5.57;1.83;;;16.80;99.90;;;;;;5095866;28;20040;-73
2023/07/31 02:39:51;;;;;;;7.77;2.30;;;16.70;99.90;;;;;;5096056;28;20036;-72
2023/07/31 02:42:17;;;;;;;5.60;2.20;;;16.80;99.90;;;;;;5094688;28;20051;-72
2023/07/31 02:44:43;;;;;;;6.20;2.00;;;16.80;99.90;;;;;;5094618;28;20036;-72
2023/07/31 02:47:08;;;;;;;4.80;1.77;;;16.70;99.90;;;;;;5095994;28;20056;-72
2023/07/31 02:49:34;;;;;;;5.13;2.03;;;16.70;99.90;;;;;;5095614;28;20131;-72
2023/07/31 02:52:00;;;;;;;4.70;1.80;;;16.70;99.90;;;;;;5096168;28;20052;-72
2023/07/31 02:54:25;;;;;;;5.43;1.83;;;16.70;99.90;;;;;;5095854;28;20052;-72
2023/07/31 02:56:51;;;;;;;4.87;1.83;;;16.70;99.90;;;;;;5095768;28;20048;-72
2023/07/31 02:59:18;;;;;;;3.97;1.90;;;16.70;99.90;;;;;;5095706;28;20048;-72
2023/07/31 03:01:44;;;;;;;9.00;2.07;;;16.60;99.90;;;;;;5095423;28;20089;-72
2023/07/31 03:04:09;;;;;;;7.50;2.20;;;16.60;99.90;;;;;;5095683;28;20088;-72
2023/07/31 03:06:35;;;;;;;6.80;2.10;;;16.60;99.90;;;;;;5093804;28;20084;-72
2023/07/31 03:09:01;;;;;;;6.40;1.80;;;16.60;99.90;;;;;;5095552;28;20048;-71
2023/07/31 03:11:26;;;;;;;5.90;2.20;;;16.60;99.90;;;;;;5095615;28;20404;-72
2023/07/31 03:13:52;;;;;;;5.77;2.00;;;16.60;99.90;;;;;;5095133;28;20119;-72
2023/07/31 03:16:18;;;;;;;5.50;1.60;;;16.60;99.90;;;;;;5094514;28;20044;-72
2023/07/31 03:18:44;;;;;;;4.13;1.63;;;16.60;99.90;;;;;;5095124;28;20051;-72
2023/07/31 03:21:09;;;;;;;4.17;1.73;;;16.60;99.90;;;;;;5095423;28;20043;-72
2023/07/31 03:23:35;;;;;;;4.27;1.50;;;16.60;99.90;;;;;;5094060;28;20082;-72
2023/07/31 03:26:05;;;;;;;4.73;1.50;;;16.60;99.90;;;;;;5094264;28;20047;-72
2023/07/31 03:28:31;;;;;;;3.90;1.50;;;16.60;99.90;;;;;;5093661;28;20157;-73
2023/07/31 03:30:57;;;;;;;1.67;1.10;;;16.50;99.90;;;;;;5093820;28;20083;-72
2023/07/31 03:33:22;;;;;;;3.87;1.27;;;16.50;99.90;;;;;;5094919;28;20087;-72
2023/07/31 03:35:48;;;;;;;4.27;1.40;;;16.50;99.90;;;;;;5094775;28;20101;-73
2023/07/31 03:38:14;;;;;;;3.37;1.50;;;16.50;99.90;;;;;;5093985;28;20383;-72
2023/07/31 03:40:40;;;;;;;2.13;1.53;;;16.40;99.90;;;;;;5093689;28;20127;-72
2023/07/31 03:43:06;;;;;;;3.57;1.40;;;16.50;99.90;;;;;;5094879;28;20063;-72
2023/07/31 03:45:32;;;;;;;4.20;1.40;;;16.50;99.90;;;;;;5094712;28;20068;-72
2023/07/31 03:47:57;;;;;;;3.00;1.50;;;16.40;99.90;;;;;;5094729;28;20070;-72
2023/07/31 03:50:24;;;;;;;4.07;1.70;;;16.50;99.90;;;;;;5094680;28;20047;-72
2023/07/31 03:52:50;;;;;;;4.03;1.50;;;16.50;99.90;;;;;;5076689;28;20064;-72
2023/07/31 03:55:16;;;;;;;4.20;1.50;;;16.50;99.90;;;;;;5094468;28;20097;-73
2023/07/31 03:57:42;;;;;;;3.50;1.43;;;16.50;99.90;;;;;;5094247;28;20131;-73
2023/07/31 04:00:08;;;;;;;3.77;1.40;;;16.50;99.90;;;;;;5094485;28;20044;-72
2023/07/31 04:02:34;;;;;;;3.43;1.73;;;16.50;99.90;;;;;;5094089;28;20487;-78
2023/07/31 04:04:59;;;;;;;3.33;1.43;;;16.50;99.90;;;;;;5094216;28;20078;-73
2023/07/31 04:07:25;;;;;;;3.00;1.30;;;16.40;99.90;;;;;;5093249;28;20063;-73
2023/07/31 04:09:51;;;;;;;2.43;1.33;;;16.50;99.90;;;;;;5094090;28;20052;-73
2023/07/31 04:12:16;;;;;;;5.23;1.63;;;16.50;99.90;;;;;;5092812;28;20063;-73
2023/07/31 04:14:42;;;;;;;4.57;1.90;;;16.50;99.90;;;;;;5092982;28;20040;-73
2023/07/31 04:17:08;;;;;;;3.87;1.47;;;16.50;99.90;;;;;;5094165;28;20113;-74
2023/07/31 04:19:33;;;;;;;3.63;1.70;;;16.40;99.90;;;;;;5094121;28;20051;-74
2023/07/31 04:21:59;;;;;;;3.93;1.40;;;16.40;99.90;;;;;;5093861;28;20048;-73
2023/07/31 04:24:25;;;;;;;2.57;1.60;;;16.40;99.90;;;;;;5093993;28;20121;-74
2023/07/31 04:26:52;;;;;;;2.53;1.70;;;16.50;99.90;;;;;;5093755;28;20480;-74
2023/07/31 04:29:17;;;;;;;3.83;1.50;;;16.40;99.90;;;;;;5093959;28;20549;-73
2023/07/31 04:31:43;;;;;;;3.20;1.40;;;16.40;99.90;;;;;;5093459;28;20114;-74
2023/07/31 04:34:09;;;;;;;5.13;1.90;;;16.40;99.90;;;;;;5092659;28;20044;-74
2023/07/31 04:36:35;;;;;;;4.80;1.77;;;16.40;99.90;;;;;;5093862;28;20048;-74
2023/07/31 04:39:01;;;;;;;2.60;1.60;;;16.50;99.90;;;;;;5093080;28;20514;-74
2023/07/31 04:41:27;;;;;;;3.70;1.80;;;16.50;99.90;;;;;;5093833;28;20422;-74
2023/07/31 04:43:53;;;;;;;5.27;2.20;;;16.40;99.90;;;;;;5093542;28;20392;-74
2023/07/31 04:46:19;;;;;;;5.20;2.40;;;16.40;99.90;;;;;;5075598;28;20040;-74
2023/07/31 04:48:45;;;;;;;7.13;2.77;;;16.50;99.90;;;;;;5092116;28;20040;-75
2023/07/31 04:51:10;;;;;;;7.80;3.20;;;16.50;99.90;;;;;;5093822;28;20357;-74
2023/07/31 04:53:36;;;;;;;11.63;3.20;;;16.50;99.90;;;;;;5093669;28;20048;-73
2023/07/31 04:56:02;;;;;;;11.23;3.20;;;16.50;99.90;;;;;;5093302;28;20043;-74
2023/07/31 04:58:28;;;;;;;8.90;3.40;;;16.50;99.90;;;;;;5093528;28;20104;-73
2023/07/31 05:00:54;;;;;;;7.87;2.73;;;16.50;99.90;;;;;;5093202;28;20420;-74
2023/07/31 05:03:19;;;;;;;6.70;2.93;;;16.50;99.90;;;;;;5093651;28;20553;-72
2023/07/31 05:05:45;;;;;;;7.10;3.17;;;16.50;99.90;;;;;;5092727;28;20067;-75
2023/07/31 05:08:11;;;;;;;6.03;2.43;;;16.50;99.90;;;;;;5093373;28;20531;-73
2023/07/31 05:10:36;;;;;;;6.57;2.37;;;16.50;99.90;;;;;;5093372;28;20503;-73
2023/07/31 05:13:02;;;;;;;6.03;2.80;;;16.50;99.90;;;;;;5093065;28;20044;-73
2023/07/31 05:15:28;;;;;;;9.17;2.67;;;16.50;99.90;;;;;;5092318;28;20172;-73
2023/07/31 05:17:54;;;;;;;6.80;2.37;;;16.50;99.90;;;;;;5092924;28;20051;-74
2023/07/31 05:20:21;;;;;;;6.43;2.60;;;16.50;99.90;;;;;;5093476;28;20130;-73
2023/07/31 05:22:46;;;;;;;7.20;3.17;;;16.60;99.90;;;;;;5092387;28;20055;-73
2023/07/31 05:25:12;;;;;;;7.87;3.17;;;16.60;99.90;;;;;;5092267;28;20032;-75
2023/07/31 05:27:38;;;;;;;6.90;3.10;;;16.60;99.90;;;;;;5091728;28;20115;-72
2023/07/31 05:30:05;;;;;;;10.47;3.37;;;16.60;99.90;;;;;;5092662;28;20102;-75
2023/07/31 05:32:30;;;;;;;10.00;3.03;;;16.60;99.90;;;;;;5075201;28;20483;-73
2023/07/31 05:34:56;;;;;;;11.23;3.97;;;16.50;99.90;;;;;;5091780;28;20059;-74
2023/07/31 05:37:22;;;;;;;11.43;3.83;;;16.60;99.90;;;;;;5093257;28;20047;-74
2023/07/31 05:39:48;;;;;;;10.87;4.27;;;16.60;99.90;;;;;;5092764;28;20480;-74
2023/07/31 05:42:14;;;;;;;12.73;4.60;;;16.60;99.90;;;;;;5092035;28;20043;-74
2023/07/31 05:44:39;;;;;;;17.83;5.67;;;16.60;99.90;;;;;;5091729;28;20044;-74
2023/07/31 05:47:05;;;;;;;18.97;5.63;;;16.60;99.90;;;;;;5092726;28;20047;-74
2023/07/31 05:49:31;;;;;;;20.80;7.03;;;16.60;99.90;;;;;;5093093;28;20553;-74
2023/07/31 05:51:57;;;;;;;21.70;7.50;;;16.70;99.90;;;;;;5094014;28;20047;-75
2023/07/31 05:54:22;;;;;;;22.00;7.23;;;16.70;99.90;;;;;;5079124;28;20392;-74
2023/07/31 05:56:48;;;;;;;22.83;7.57;;;16.70;99.90;;;;;;5096767;28;20136;-75
2023/07/31 05:59:14;;;;;;;24.23;7.47;;;16.70;99.90;;;;;;5095886;28;20044;-74
2023/07/31 06:01:39;;;;;;;20.97;8.03;;;16.80;99.90;;;;;;5096913;28;20044;-74
2023/07/31 06:04:05;;;;;;;23.93;7.23;;;16.80;99.90;;;;;;5095505;28;20559;-74
2023/07/31 06:06:31;;;;;;;28.07;8.07;;;16.80;99.90;;;;;;5096416;28;20063;-72
2023/07/31 06:08:57;;;;;;;27.23;8.20;;;16.90;99.90;;;;;;5096322;28;20491;-73
2023/07/31 06:11:23;;;;;;;20.40;7.60;;;16.90;99.90;;;;;;5095674;28;20075;-72
2023/07/31 06:13:49;;;;;;;24.77;7.33;;;16.90;99.90;;;;;;5096625;28;20056;-72
2023/07/31 06:16:15;;;;;;;28.80;7.73;;;16.90;99.90;;;;;;5096588;28;20084;-73
2023/07/31 06:18:41;;;;;;;25.80;8.30;;;16.90;99.90;;;;;;5078676;28;20086;-73
2023/07/31 06:21:08;;;;;;;22.10;6.73;;;17.00;99.90;;;;;;5096183;28;20050;-74
2023/07/31 06:23:33;;;;;;;24.80;7.60;;;17.00;99.90;;;;;;5096399;28;20101;-73
2023/07/31 06:25:59;;;;;;;20.87;7.23;;;17.10;99.90;;;;;;5096045;28;20480;-73
2023/07/31 06:28:29;;;;;;;18.13;7.47;;;17.10;99.90;;;;;;5095383;28;20095;-73
2023/07/31 06:30:55;;;;;;;23.80;6.40;;;17.20;99.90;;;;;;5096393;28;20047;-74
2023/07/31 06:33:21;;;;;;;22.63;7.97;;;17.20;99.90;;;;;;5096188;28;20044;-74
2023/07/31 06:35:46;;;;;;;21.43;7.93;;;17.20;99.90;;;;;;5096089;28;20051;-73
2023/07/31 06:38:12;;;;;;;21.23;6.90;;;17.20;99.90;;;;;;5094857;28;20090;-72
2023/07/31 06:40:38;;;;;;;17.87;6.20;;;17.20;99.90;;;;;;5096283;28;20369;-70
2023/07/31 06:43:07;;;;;;;16.90;5.83;;;17.20;99.90;;;;;;5094636;28;20051;-68
2023/07/31 06:45:37;;;;;;;18.23;6.57;;;17.20;99.90;;;;;;5095866;28;20063;-69
2023/07/31 06:48:04;;;;;;;19.27;5.80;;;17.20;99.90;;;;;;5095393;28;20054;-72
2023/07/31 06:50:33;;;;;;;17.77;6.30;;;17.20;99.90;;;;;;5093252;28;20055;-71
2023/07/31 06:52:59;;;;;;;20.23;6.03;;;17.20;99.90;;;;;;5095516;28;20044;-71
2023/07/31 06:55:27;;;;;;;16.37;4.60;;;17.10;99.90;;;;;;5095922;28;20055;-71
2023/07/31 06:57:54;;;;;;;15.10;4.87;;;17.10;99.90;;;;;;5095903;28;20075;-71
2023/07/31 07:00:21;;;;;;;13.40;5.00;;;17.10;99.90;;;;;;5095902;28;20066;-71
2023/07/31 07:02:48;;;;;;;12.50;4.00;;;17.20;99.90;;;;;;5094050;28;20055;-71
2023/07/31 07:05:14;;;;;;;8.97;3.47;;;17.20;99.90;;;;;;5095349;28;20133;-71
2023/07/31 07:07:41;;;;;;;12.07;3.97;;;17.30;99.90;;;;;;5095733;28;20101;-71
2023/07/31 07:10:07;;;;;;;11.10;3.90;;;17.30;99.90;;;;;;5095331;28;20052;-71
2023/07/31 07:12:33;;;;;;;8.53;3.23;;;17.30;99.90;;;;;;5095470;28;20040;-71
2023/07/31 07:15:00;;;;;;;8.63;3.60;;;17.20;99.90;;;;;;5095271;28;20043;-72
2023/07/31 07:17:27;;;;;;;14.13;4.20;;;17.30;99.90;;;;;;5095489;28;20116;-71
2023/07/31 07:19:53;;;;;;;13.23;4.67;;;17.30;99.90;;;;;;5095421;28;20476;-71
2023/07/31 07:22:19;;;;;;;9.20;3.47;;;17.30;99.90;;;;;;5093925;28;20046;-71
2023/07/31 07:24:44;;;;;;;11.00;3.60;;;17.30;99.90;;;;;;5093997;28;20503;-71
2023/07/31 07:27:10;;;;;;;8.10;3.50;;;17.30;99.90;;;;;;5094136;28;20048;-71
2023/07/31 07:29:38;;;;;;;6.17;2.60;;;17.30;99.90;;;;;;5077367;28;20074;-71
2023/07/31 07:32:05;;;;;;;7.30;2.47;;;17.40;99.90;;;;;;5094929;28;20059;-71
2023/07/31 07:34:30;;;;;;;5.93;2.23;;;17.40;99.90;;;;;;5094181;28;20498;-71
2023/07/31 07:36:56;;;;;;;6.90;2.00;;;17.40;99.90;;;;;;5095056;28;20131;-71
2023/07/31 07:39:22;;;;;;;4.73;1.80;;;17.40;99.90;;;;;;5093667;28;20086;-71
2023/07/31 07:41:48;;;;;;;3.73;1.80;;;17.40;99.90;;;;;;5095092;28;20180;-71
2023/07/31 07:44:14;;;;;;;3.23;1.37;;;17.40;99.90;;;;;;5076871;28;20134;-71
2023/07/31 07:46:39;;;;;;;1.87;1.00;;;17.40;99.90;;;;;;5094951;28;20051;-71
2023/07/31 07:49:05;;;;;;;2.07;0.97;;;17.40;99.90;;;;;;5093612;28;20048;-71
2023/07/31 07:51:31;;;;;;;2.23;1.07;;;17.40;99.90;;;;;;5093939;28;20036;-71
2023/07/31 07:53:58;;;;;;;1.90;0.90;;;17.30;99.90;;;;;;5093659;28;20126;-70
2023/07/31 07:56:25;;;;;;;2.50;1.10;;;17.30;99.90;;;;;;5093607;28;20044;-70
2023/07/31 07:58:51;;;;;;;1.90;0.90;;;17.30;99.90;;;;;;5094906;28;20097;-71
2023/07/31 08:01:16;;;;;;;1.40;0.77;;;17.30;99.90;;;;;;5094452;28;20051;-70
2023/07/31 08:03:42;;;;;;;2.10;1.10;;;17.30;99.90;;;;;;5093523;28;20050;-70
2023/07/31 08:06:09;;;;;;;2.33;1.00;;;17.30;99.90;;;;;;5094063;28;20573;-71
2023/07/31 08:08:35;;;;;;;1.40;0.90;;;17.30;99.90;;;;;;5094830;28;20052;-71
2023/07/31 08:11:01;;;;;;;1.70;0.90;;;17.30;99.90;;;;;;5094430;28;20044;-70
2023/07/31 08:13:27;;;;;;;2.17;1.00;;;17.30;99.90;;;;;;5094295;28;20060;-71
2023/07/31 08:15:53;;;;;;;1.87;0.90;;;17.40;99.90;;;;;;5093845;28;20051;-71
2023/07/31 08:18:19;;;;;;;2.67;1.20;;;17.40;99.90;;;;;;5094141;28;20062;-71
2023/07/31 08:20:44;;;;;;;2.17;1.00;;;17.40;99.90;;;;;;5093566;28;20050;-71
2023/07/31 08:23:10;;;;;;;1.90;0.90;;;17.50;99.90;;;;;;5094048;28;20117;-71
2023/07/31 08:25:37;;;;;;;2.00;0.80;;;17.40;99.90;;;;;;5094133;28;20066;-71
2023/07/31 08:28:04;;;;;;;2.10;1.10;;;17.40;99.90;;;;;;5094171;28;20048;-71
2023/07/31 08:30:30;;;;;;;1.50;1.00;;;17.40;99.90;;;;;;5094129;28;20082;-71
2023/07/31 08:32:56;;;;;;;1.63;0.90;;;17.50;99.90;;;;;;5094269;28;20051;-71
2023/07/31 08:35:21;;;;;;;1.43;1.00;;;17.50;99.90;;;;;;5093897;28;20066;-71
2023/07/31 08:37:47;;;;;;;1.57;0.80;;;17.50;99.90;;;;;;5094012;28;20484;-71
2023/07/31 08:40:13;;;;;;;1.30;0.83;;;17.50;99.90;;;;;;5093820;28;20052;-72
2023/07/31 08:42:49;;;;;;;1.83;0.93;;;17.50;99.90;;;;;;5093945;28;20508;-72
2023/07/31 08:45:17;;;;;;;2.77;1.10;;;17.50;99.90;;;;;;5092759;28;20123;-73
2023/07/31 08:47:45;;;;;;;1.90;0.90;;;17.50;99.90;;;;;;5093949;28;20041;-73
2023/07/31 08:50:16;;;;;;;3.27;1.07;;;17.50;99.90;;;;;;5093717;28;20048;-74
2023/07/31 08:52:42;;;;;;;3.67;0.93;;;17.60;99.90;;;;;;5093747;28;20105;-73
2023/07/31 08:55:09;;;;;;;2.07;1.20;;;17.60;99.90;;;;;;5093533;28;20039;-74
2023/07/31 08:57:38;;;;;;;8.00;1.83;;;17.60;99.90;;;;;;5093800;28;20052;-73
2023/07/31 09:00:08;;;;;;;4.37;1.47;;;17.60;99.90;;;;;;5093799;28;20051;-72
2023/07/31 09:02:52;;;;;;;3.37;1.43;;;17.60;99.90;;;;;;5076120;28;20126;-72
2023/07/31 09:05:18;;;;;;;2.43;1.40;;;17.60;99.90;;;;;;5075472;28;20097;-72
2023/07/31 09:07:47;;;;;;;2.93;1.20;;;17.70;99.90;;;;;;5093235;28;20468;-72
2023/07/31 09:10:13;;;;;;;3.60;1.50;;;17.70;99.90;;;;;;5092183;28;20060;-72
2023/07/31 09:12:39;;;;;;;4.93;1.50;;;17.70;99.90;;;;;;5093772;28;20048;-71
2023/07/31 09:15:05;;;;;;;3.60;1.60;;;17.80;99.90;;;;;;5093501;28;20385;-72
2023/07/31 09:17:36;;;;;;;4.00;1.50;;;17.80;99.90;;;;;;5093226;28;20052;-71
2023/07/31 09:20:21;;;;;;;2.07;1.10;;;17.80;99.90;;;;;;5093350;28;20476;-72
2023/07/31 09:22:49;;;;;;;5.38;1.10;;;17.90;99.90;;;;;;5093628;28;20113;-72
2023/07/31 09:25:18;;;;;;;3.50;0.93;;;17.90;99.90;;;;;;5091866;28;20051;-72
2023/07/31 09:27:53;;;;;;;1.73;0.73;;;18.00;99.90;;;;;;5093280;28;20047;-72
2023/07/31 09:30:19;;;;;;;;;;;18.00;99.90;;;;;;5093570;28;20400;-72
2023/07/31 09:32:45;;;;;;;1.60;0.70;;;18.10;99.90;;;;;;5093470;28;19920;-71
2023/07/31 09:35:27;;;;;;;2.57;1.00;;;18.10;99.90;;;;;;5093205;28;20444;-72
2023/07/31 09:37:55;;;;;;;1.37;0.70;;;18.20;99.90;;;;;;5092954;28;20039;-71
2023/07/31 09:40:32;;;;;;;2.17;0.90;;;18.20;99.90;;;;;;5092986;28;20126;-72
2023/07/31 09:43:04;;;;;;;7.57;1.23;;;18.20;99.90;;;;;;5093230;28;20052;-72
2023/07/31 09:45:33;;;;;;;4.23;1.53;;;18.20;99.90;;;;;;5092956;28;20047;-71
2023/07/31 09:47:58;;;;;;;1.63;0.90;;;18.30;99.90;;;;;;5093152;28;20106;-72
2023/07/31 09:50:25;;;;;;;3.27;1.00;;;18.30;99.90;;;;;;5092971;28;20087;-72
2023/07/31 09:52:52;;;;;;;3.30;0.93;;;18.40;99.90;;;;;;5093355;28;20075;-71
2023/07/31 09:55:19;;;;;;;1.90;0.80;;;18.40;99.90;;;;;;5091581;28;20069;-71
2023/07/31 09:57:47;;;;;;;1.57;0.83;;;18.40;99.90;;;;;;5093017;28;20131;-71
2023/07/31 10:00:14;;;;;;;2.57;0.80;;;18.50;99.90;;;;;;5093014;28;20181;-71
2023/07/31 10:02:41;;;;;;;0.67;0.60;;;18.60;99.90;;;;;;5092999;28;20044;-71
2023/07/31 10:05:07;;;;;;;2.00;0.80;;;18.60;99.90;;;;;;5091732;28;20044;-71
2023/07/31 10:07:41;;;;;;;1.13;0.70;;;18.70;99.90;;;;;;5092948;28;20060;-71
2023/07/31 10:10:11;;;;;;;0.87;0.67;;;18.70;99.90;;;;;;5092019;28;20411;-71
2023/07/31 10:12:38;;;;;;;2.23;0.80;;;18.70;99.90;;;;;;5091725;28;20060;-71
2023/07/31 10:15:04;;;;;;;2.30;0.70;;;18.70;99.90;;;;;;5092915;28;20040;-71
2023/07/31 10:17:31;;;;;;;1.73;0.70;;;18.70;99.90;;;;;;5091473;28;20142;-71
2023/07/31 10:20:01;;;;;;;0.70;0.70;;;18.60;99.90;;;;;;5092979;28;20047;-70
2023/07/31 10:22:27;;;;;;;0.87;0.73;;;18.70;99.90;;;;;;5092621;28;20052;-70
2023/07/31 10:24:55;;;;;;;1.80;0.90;;;18.70;99.90;;;;;;5092771;28;20048;-70
2023/07/31 10:27:21;;;;;;;1.97;0.90;;;18.80;99.90;;;;;;5092725;28;20058;-71
2023/07/31 10:29:49;;;;;;;1.30;0.83;;;18.90;99.90;;;;;;5091503;28;20575;-70
2023/07/31 10:32:16;;;;;;;2.13;1.00;;;18.90;99.90;;;;;;5092942;28;20558;-70
2023/07/31 10:34:43;;;;;;;1.13;0.77;;;18.90;99.90;;;;;;5092688;28;20044;-70
2023/07/31 10:37:28;;;;;;;2.20;0.90;;;19.00;99.90;;;;;;5092798;28;20126;-70
2023/07/31 10:40:09;;;;;;;1.85;0.98;;;19.00;99.90;;;;;;5096239;28;20488;-71
2023/07/31 10:42:38;;;;;;;2.00;1.10;;;18.90;99.90;;;;;;5095862;28;20488;-71
2023/07/31 10:45:11;;;;;;;4.73;1.27;;;18.90;99.90;;;;;;5095125;28;20101;-71
2023/07/31 10:47:46;;;;;;;2.40;1.33;;;18.90;99.90;;;;;;5095921;28;20130;-71
2023/07/31 10:50:19;;;;;;;3.00;1.20;;;18.90;99.90;;;;;;5095074;28;20082;-71
2023/07/31 10:52:53;;;;;;;2.40;1.00;;;19.10;99.90;;;;;;5096120;28;20392;-70
2023/07/31 10:55:42;;;;;;;2.17;1.00;;;19.10;99.90;;;;;;5096029;28;20048;-70
2023/07/31 10:58:10;;;;;;;3.07;1.47;;;19.20;99.90;;;;;;5096160;28;20365;-70
2023/07/31 11:00:44;;;;;;;1.93;1.00;;;19.30;99.90;;;;;;5095693;28;20044;-70
2023/07/31 11:03:12;;;;;;;2.77;1.07;;;19.40;99.90;;;;;;5095902;28;20075;-70
2023/07/31 11:05:48;;;;;;;1.97;1.10;;;19.50;99.90;;;;;;5095380;28;20051;-70
2023/07/31 11:08:27;;;;;;;3.10;1.33;;;19.50;99.90;;;;;;5095974;28;20060;-70
2023/07/31 11:11:15;;;;;;;1.83;0.90;;;19.40;99.90;;;;;;5095757;28;20048;-70
2023/07/31 11:13:50;;;;;;;2.43;1.10;;;19.40;99.90;;;;;;5095516;28;20058;-70
2023/07/31 11:16:17;;;;;;;4.82;1.63;;;19.30;99.90;;;;;;5094612;28;20377;-70
2023/07/31 11:18:44;;;;;;;4.53;1.40;;;19.40;99.90;;;;;;5094225;28;20094;-70
2023/07/31 11:21:15;;;;;;;5.13;1.70;;;19.50;99.90;;;;;;5094616;28;20048;-70
2023/07/31 11:23:45;;;;;;;5.03;1.80;;;19.40;99.90;;;;;;5095256;28;20097;-70
2023/07/31 11:26:11;;;;;;;3.87;1.40;;;19.40;99.90;;;;;;5095307;28;20040;-70
2023/07/31 11:28:38;;;;;;;3.40;1.50;;;19.40;99.90;;;;;;5095209;28;20056;-71
2023/07/31 11:31:04;;;;;;;4.63;1.60;;;19.40;99.90;;;;;;5077717;28;20135;-71
2023/07/31 11:33:31;;;;;;;6.10;1.50;;;19.30;99.90;;;;;;5095036;28;20047;-71
2023/07/31 11:35:57;;;;;;;4.93;2.10;;;19.30;99.90;;;;;;5095205;28;20044;-71
2023/07/31 11:38:36;;;;;;;7.33;1.80;;;19.30;99.90;;;;;;5095129;28;20472;-70
2023/07/31 11:41:03;;;;;;;7.37;2.03;;;19.20;99.90;;;;;;5094532;28;20120;-70
2023/07/31 11:43:30;;;;;;;4.37;1.63;;;19.30;99.90;;;;;;5094836;28;20044;-70
2023/07/31 11:45:58;;;;;;;7.63;2.10;;;19.30;99.90;;;;;;5093854;28;20055;-70
2023/07/31 11:48:29;;;;;;;7.83;2.00;;;19.50;99.90;;;;;;5094992;28;20044;-70
2023/07/31 11:51:00;;;;;;;6.37;2.20;;;19.60;99.90;;;;;;5094924;28;20052;-70
2023/07/31 11:53:45;;;;;;;5.80;1.90;;;19.60;99.90;;;;;;5094976;28;20059;-73
2023/07/31 11:56:14;;;;;;;6.67;2.03;;;19.50;99.90;;;;;;5095139;28;20047;-70
2023/07/31 11:58:43;;;;;;;5.87;2.33;;;19.50;99.90;;;;;;5094560;28;20044;-70
2023/07/31 12:01:09;;;;;;;7.30;2.40;;;19.40;99.90;;;;;;5094016;28;20051;-70
2023/07/31 12:03:35;;;;;;;10.07;2.27;;;19.40;99.90;;;;;;5093511;28;20062;-71
2023/07/31 12:06:02;;;;;;;7.13;2.20;;;19.30;99.90;;;;;;5094328;28;20036;-70
2023/07/31 12:08:27;;;;;;;7.80;2.50;;;19.20;99.90;;;;;;5094390;28;20055;-71
2023/07/31 12:10:54;;;;;;;8.30;2.37;;;19.10;99.90;;;;;;5094771;28;20044;-70
2023/07/31 12:13:26;;;;;;;7.43;2.50;;;19.20;99.90;;;;;;5094552;28;20067;-70
2023/07/31 12:15:59;;;;;;;10.53;2.73;;;19.30;99.90;;;;;;5094333;28;20101;-69
2023/07/31 12:18:27;;;;;;;12.90;2.83;;;19.30;99.90;;;;;;5094536;28;20040;-70
2023/07/31 12:21:00;;;;;;;13.60;3.37;;;19.40;99.90;;;;;;5094481;28;20048;-70
2023/07/31 12:23:28;;;;;;;10.27;2.73;;;19.40;99.90;;;;;;5094345;28;20047;-70
2023/07/31 12:26:11;;;;;;;9.73;2.90;;;19.50;99.90;;;;;;5092999;28;20040;-70
2023/07/31 12:28:48;;;;;;;9.97;2.50;;;19.50;99.90;;;;;;5094214;28;20044;-70
2023/07/31 12:31:19;;;;;;;9.43;2.80;;;19.50;99.90;;;;;;5076449;28;20098;-70
2023/07/31 12:33:46;;;;;;;7.90;2.40;;;19.50;99.90;;;;;;5093648;28;20476;-70
2023/07/31 12:36:14;;;;;;;11.23;3.07;;;19.50;99.90;;;;;;5094147;28;20046;-70
2023/07/31 12:38:41;;;;;;;8.07;2.73;;;19.50;99.90;;;;;;5093834;28;20141;-70
2023/07/31 12:41:07;;;;;;;11.93;3.07;;;19.50;99.90;;;;;;5094245;28;20147;-70
2023/07/31 12:43:33;;;;;;;9.57;2.90;;;19.50;99.90;;;;;;5093825;28;20432;-70
2023/07/31 12:45:59;;;;;;;11.17;2.53;;;19.40;99.90;;;;;;5093864;28;20040;-70